sensor_id;sensor_type;location;lat;lon;timestamp;pressure;altitude;pressure_sealevel;temperature;humidity
75497;BME280;64074;47.540;19.072;2023-07-29T00:01:00;100130.97;;;22.45;73.63
75497;BME280;64074;47.540;19.072;2023-07-29T00:04:04;100125.03;;;22.05;73.79
75497;BME280;64074;47.540;19.072;2023-07-29T00:07:08;100122.38;;;21.83;74.10
75497;BME280;64074;47.540;19.072;2023-07-29T00:10:11;100121.06;;;21.73;73.66
75497;BME280;64074;47.540;19.072;2023-07-29T00:13:14;100120.44;;;21.83;73.55
75497;BME280;64074;47.540;19.072;2023-07-29T00:16:17;100118.34;;;21.76;73.88
75497;BME280;64074;47.540;19.072;2023-07-29T00:19:21;100119.03;;;21.66;74.13
75497;BME280;64074;47.540;19.072;2023-07-29T00:22:26;100113.50;;;21.66;74.57
75497;BME280;64074;47.540;19.072;2023-07-29T00:25:28;100119.63;;;21.83;74.67
75497;BME280;64074;47.540;19.072;2023-07-29T00:28:31;100121.03;;;21.69;75.24
75497;BME280;64074;47.540;19.072;2023-07-29T00:31:34;100123.72;;;21.62;75.31
75497;BME280;64074;47.540;19.072;2023-07-29T00:34:37;100122.81;;;21.55;76.10
75497;BME280;64074;47.540;19.072;2023-07-29T00:37:41;100117.34;;;21.58;76.58
75497;BME280;64074;47.540;19.072;2023-07-29T00:40:46;100115.53;;;21.39;76.66
75497;BME280;64074;47.540;19.072;2023-07-29T00:43:50;100119.97;;;21.21;76.93
75497;BME280;64074;47.540;19.072;2023-07-29T00:46:54;100117.53;;;21.16;77.55
75497;BME280;64074;47.540;19.072;2023-07-29T00:49:58;100115.75;;;21.27;77.45
75497;BME280;64074;47.540;19.072;2023-07-29T00:53:00;100109.84;;;21.29;77.15
75497;BME280;64074;47.540;19.072;2023-07-29T00:56:04;100112.31;;;21.34;76.57
75497;BME280;64074;47.540;19.072;2023-07-29T00:59:07;100111.59;;;21.40;76.59
75497;BME280;64074;47.540;19.072;2023-07-29T01:02:12;100109.97;;;21.36;76.05
75497;BME280;64074;47.540;19.072;2023-07-29T01:05:16;100102.91;;;21.38;75.52
75497;BME280;64074;47.540;19.072;2023-07-29T01:08:46;100108.13;;;21.47;75.60
75497;BME280;64074;47.540;19.072;2023-07-29T01:12:11;100108.13;;;21.47;76.08
75497;BME280;64074;47.540;19.072;2023-07-29T01:15:24;100110.94;;;21.50;75.89
75497;BME280;64074;47.540;19.072;2023-07-29T01:18:31;100112.34;;;21.37;76.24
75497;BME280;64074;47.540;19.072;2023-07-29T01:21:35;100115.19;;;21.18;74.98
75497;BME280;64074;47.540;19.072;2023-07-29T01:24:39;100107.66;;;21.15;75.06
75497;BME280;64074;47.540;19.072;2023-07-29T01:27:44;100114.03;;;21.19;75.70
75497;BME280;64074;47.540;19.072;2023-07-29T01:30:49;100111.19;;;21.12;75.77
75497;BME280;64074;47.540;19.072;2023-07-29T01:34:17;100112.38;;;20.88;76.80
75497;BME280;64074;47.540;19.072;2023-07-29T01:37:25;100103.88;;;20.74;76.85
75497;BME280;64074;47.540;19.072;2023-07-29T01:40:29;100118.59;;;21.08;76.32
75497;BME280;64074;47.540;19.072;2023-07-29T01:43:33;100115.16;;;20.88;76.65
75497;BME280;64074;47.540;19.072;2023-07-29T01:46:37;100105.25;;;20.83;76.94
75497;BME280;64074;47.540;19.072;2023-07-29T01:49:43;100108.78;;;21.10;76.16
75497;BME280;64074;47.540;19.072;2023-07-29T01:52:45;100110.47;;;21.18;75.90
75497;BME280;64074;47.540;19.072;2023-07-29T01:55:49;100110.38;;;21.11;76.59
75497;BME280;64074;47.540;19.072;2023-07-29T01:58:53;100115.19;;;20.92;76.67
75497;BME280;64074;47.540;19.072;2023-07-29T02:01:56;100109.03;;;20.75;77.88
75497;BME280;64074;47.540;19.072;2023-07-29T02:04:59;100111.56;;;20.61;77.92
75497;BME280;64074;47.540;19.072;2023-07-29T02:08:02;100115.84;;;20.58;78.21
75497;BME280;64074;47.540;19.072;2023-07-29T02:11:06;100115.22;;;20.69;78.00
75497;BME280;64074;47.540;19.072;2023-07-29T02:14:09;100118.56;;;20.81;78.09
75497;BME280;64074;47.540;19.072;2023-07-29T02:17:12;100105.81;;;20.96;77.61
75497;BME280;64074;47.540;19.072;2023-07-29T02:20:15;100107.72;;;20.92;77.65
75497;BME280;64074;47.540;19.072;2023-07-29T02:23:18;100103.31;;;20.87;78.23
75497;BME280;64074;47.540;19.072;2023-07-29T02:26:22;100117.16;;;20.91;78.49
75497;BME280;64074;47.540;19.072;2023-07-29T02:29:26;100119.44;;;20.85;77.96
75497;BME280;64074;47.540;19.072;2023-07-29T02:32:29;100126.19;;;20.65;76.79
75497;BME280;64074;47.540;19.072;2023-07-29T02:35:32;100118.41;;;20.48;75.46
75497;BME280;64074;47.540;19.072;2023-07-29T02:38:35;100114.28;;;20.38;75.42
75497;BME280;64074;47.540;19.072;2023-07-29T02:41:38;100120.72;;;20.69;74.94
75497;BME280;64074;47.540;19.072;2023-07-29T02:44:42;100115.75;;;20.78;74.61
75497;BME280;64074;47.540;19.072;2023-07-29T02:47:46;100116.19;;;20.80;74.90
75497;BME280;64074;47.540;19.072;2023-07-29T02:50:49;100122.94;;;20.82;74.85
75497;BME280;64074;47.540;19.072;2023-07-29T02:53:52;100126.31;;;20.72;74.63
75497;BME280;64074;47.540;19.072;2023-07-29T02:56:55;100132.84;;;20.41;74.27
75497;BME280;64074;47.540;19.072;2023-07-29T02:59:58;100119.94;;;20.45;74.11
75497;BME280;64074;47.540;19.072;2023-07-29T03:03:01;100122.16;;;20.59;73.39
75497;BME280;64074;47.540;19.072;2023-07-29T03:06:07;100121.16;;;20.71;73.52
75497;BME280;64074;47.540;19.072;2023-07-29T03:09:10;100120.41;;;20.74;73.22
75497;BME280;64074;47.540;19.072;2023-07-29T03:12:13;100126.31;;;20.72;73.20
75497;BME280;64074;47.540;19.072;2023-07-29T03:15:16;100132.44;;;20.62;74.03
75497;BME280;64074;47.540;19.072;2023-07-29T03:18:19;100137.25;;;20.69;74.08
75497;BME280;64074;47.540;19.072;2023-07-29T03:21:22;100129.53;;;20.55;73.91
75497;BME280;64074;47.540;19.072;2023-07-29T03:24:26;100126.06;;;20.58;74.37
75497;BME280;64074;47.540;19.072;2023-07-29T03:27:30;100136.34;;;20.61;74.01
75497;BME280;64074;47.540;19.072;2023-07-29T03:30:33;100141.50;;;20.63;73.41
75497;BME280;64074;47.540;19.072;2023-07-29T03:33:37;100135.69;;;20.25;74.50
75497;BME280;64074;47.540;19.072;2023-07-29T03:36:40;100129.97;;;20.34;73.74
75497;BME280;64074;47.540;19.072;2023-07-29T03:39:43;100133.41;;;20.31;73.76
75497;BME280;64074;47.540;19.072;2023-07-29T03:42:47;100129.53;;;20.55;73.35
75497;BME280;64074;47.540;19.072;2023-07-29T03:45:50;100134.09;;;20.67;73.54
75497;BME280;64074;47.540;19.072;2023-07-29T03:48:53;100136.72;;;20.60;73.19
75497;BME280;64074;47.540;19.072;2023-07-29T03:51:56;100132.13;;;20.67;73.08
75497;BME280;64074;47.540;19.072;2023-07-29T03:54:59;100138.78;;;20.66;73.02
75497;BME280;64074;47.540;19.072;2023-07-29T03:58:02;100142.03;;;20.72;73.09
75497;BME280;64074;47.540;19.072;2023-07-29T04:01:05;100138.22;;;20.57;73.44
75497;BME280;64074;47.540;19.072;2023-07-29T04:04:09;100145.41;;;20.62;73.79
75497;BME280;64074;47.540;19.072;2023-07-29T04:07:12;100151.78;;;20.66;74.18
75497;BME280;64074;47.540;19.072;2023-07-29T04:10:15;100144.91;;;20.56;74.28
75497;BME280;64074;47.540;19.072;2023-07-29T04:13:18;100150.66;;;20.70;73.79
75497;BME280;64074;47.540;19.072;2023-07-29T04:16:21;100151.09;;;20.72;73.71
75497;BME280;64074;47.540;19.072;2023-07-29T04:19:25;100149.13;;;20.73;72.72
75497;BME280;64074;47.540;19.072;2023-07-29T04:22:28;100150.06;;;20.57;73.27
75497;BME280;64074;47.540;19.072;2023-07-29T04:25:31;100148.03;;;20.54;73.16
75497;BME280;64074;47.540;19.072;2023-07-29T04:28:35;100150.63;;;20.67;72.58
75497;BME280;64074;47.540;19.072;2023-07-29T04:31:37;100147.97;;;20.74;72.88
75497;BME280;64074;47.540;19.072;2023-07-29T04:34:40;100146.56;;;20.83;72.93
75497;BME280;64074;47.540;19.072;2023-07-29T04:37:43;100140.19;;;20.79;73.80
75497;BME280;64074;47.540;19.072;2023-07-29T04:40:49;100146.56;;;20.83;74.28
75497;BME280;64074;47.540;19.072;2023-07-29T04:43:52;100156.59;;;20.95;73.45
75497;BME280;64074;47.540;19.072;2023-07-29T04:46:55;100146.69;;;21.17;73.01
75497;BME280;64074;47.540;19.072;2023-07-29T04:49:59;100140.94;;;21.26;73.71
75497;BME280;64074;47.540;19.072;2023-07-29T04:53:02;100137.13;;;21.34;74.25
75497;BME280;64074;47.540;19.072;2023-07-29T04:56:04;100142.03;;;21.21;73.74
75497;BME280;64074;47.540;19.072;2023-07-29T04:59:08;100144.91;;;21.28;73.55
75497;BME280;64074;47.540;19.072;2023-07-29T05:02:11;100147.78;;;21.35;73.37
75497;BME280;64074;47.540;19.072;2023-07-29T05:05:13;100152.69;;;21.49;73.04
75497;BME280;64074;47.540;19.072;2023-07-29T05:08:16;100143.72;;;21.86;72.29
75497;BME280;64074;47.540;19.072;2023-07-29T05:11:20;100148.75;;;22.10;72.03
75497;BME280;64074;47.540;19.072;2023-07-29T05:14:25;100149.22;;;22.16;71.29
75497;BME280;64074;47.540;19.072;2023-07-29T05:17:28;100161.81;;;22.13;71.15
75497;BME280;64074;47.540;19.072;2023-07-29T05:20:31;100161.22;;;22.00;70.88
75497;BME280;64074;47.540;19.072;2023-07-29T05:23:34;100159.97;;;22.28;69.79
75497;BME280;64074;47.540;19.072;2023-07-29T05:26:38;100162.69;;;22.58;69.61
75497;BME280;64074;47.540;19.072;2023-07-29T05:29:42;100163.25;;;22.37;69.43
75497;BME280;64074;47.540;19.072;2023-07-29T05:32:45;100171.38;;;22.60;67.51
75497;BME280;64074;47.540;19.072;2023-07-29T05:35:48;100164.56;;;22.91;65.74
75497;BME280;64074;47.540;19.072;2023-07-29T05:38:52;100172.81;;;22.84;66.31
75497;BME280;64074;47.540;19.072;2023-07-29T05:41:55;100182.19;;;22.79;67.35
75497;BME280;64074;47.540;19.072;2023-07-29T05:44:58;100180.41;;;22.97;66.93
75497;BME280;64074;47.540;19.072;2023-07-29T05:48:01;100187.50;;;22.95;65.55
75497;BME280;64074;47.540;19.072;2023-07-29T05:51:05;100184.84;;;22.65;65.23
75497;BME280;64074;47.540;19.072;2023-07-29T05:54:08;100193.22;;;23.20;64.33
75497;BME280;64074;47.540;19.072;2023-07-29T05:57:12;100194.53;;;23.37;63.60
75497;BME280;64074;47.540;19.072;2023-07-29T06:00:15;100195.00;;;23.49;63.35
75497;BME280;64074;47.540;19.072;2023-07-29T06:03:19;100196.59;;;23.50;63.84
75497;BME280;64074;47.540;19.072;2023-07-29T06:06:25;100212.50;;;23.57;64.28
75497;BME280;64074;47.540;19.072;2023-07-29T06:09:28;100217.94;;;23.53;64.62
75497;BME280;64074;47.540;19.072;2023-07-29T06:12:31;100219.09;;;23.45;65.18
75497;BME280;64074;47.540;19.072;2023-07-29T06:15:34;100220.25;;;23.41;64.42
75497;BME280;64074;47.540;19.072;2023-07-29T06:18:37;100223.78;;;23.38;64.59
75497;BME280;64074;47.540;19.072;2023-07-29T06:21:41;100221.00;;;23.34;65.72
75497;BME280;64074;47.540;19.072;2023-07-29T06:24:44;100221.00;;;23.30;66.14
75497;BME280;64074;47.540;19.072;2023-07-29T06:27:47;100221.03;;;23.38;64.58
75497;BME280;64074;47.540;19.072;2023-07-29T06:30:50;100227.94;;;23.61;62.98
75497;BME280;64074;47.540;19.072;2023-07-29T06:33:54;100231.63;;;23.80;63.28
75497;BME280;64074;47.540;19.072;2023-07-29T06:36:58;100233.63;;;23.86;62.26
75497;BME280;64074;47.540;19.072;2023-07-29T06:40:01;100232.84;;;23.89;62.62
75497;BME280;64074;47.540;19.072;2023-07-29T06:43:04;100227.72;;;23.99;62.79
75497;BME280;64074;47.540;19.072;2023-07-29T06:46:08;100224.56;;;24.00;61.87
75497;BME280;64074;47.540;19.072;2023-07-29T06:49:11;100217.88;;;24.05;61.33
75497;BME280;64074;47.540;19.072;2023-07-29T06:52:14;100220.69;;;24.12;61.18
75497;BME280;64074;47.540;19.072;2023-07-29T06:55:18;100217.94;;;24.19;60.98
75497;BME280;64074;47.540;19.072;2023-07-29T06:58:21;100220.31;;;24.24;60.30
75497;BME280;64074;47.540;19.072;2023-07-29T07:01:25;100218.31;;;24.14;59.23
75497;BME280;64074;47.540;19.072;2023-07-29T07:04:29;100221.56;;;24.30;59.58
75497;BME280;64074;47.540;19.072;2023-07-29T07:07:32;100208.19;;;24.57;59.75
75497;BME280;64074;47.540;19.072;2023-07-29T07:10:36;100210.56;;;24.66;59.09
75497;BME280;64074;47.540;19.072;2023-07-29T07:13:39;100210.97;;;24.71;58.73
75497;BME280;64074;47.540;19.072;2023-07-29T07:16:42;100209.00;;;24.97;58.50
75497;BME280;64074;47.540;19.072;2023-07-29T07:19:45;100205.84;;;24.84;58.47
75497;BME280;64074;47.540;19.072;2023-07-29T07:22:49;100212.97;;;24.92;57.99
75497;BME280;64074;47.540;19.072;2023-07-29T07:25:52;100214.19;;;25.09;57.54
75497;BME280;64074;47.540;19.072;2023-07-29T07:28:56;100209.81;;;25.40;57.06
75497;BME280;64074;47.540;19.072;2023-07-29T07:31:59;100207.84;;;25.23;57.29
75497;BME280;64074;47.540;19.072;2023-07-29T07:35:03;100204.63;;;25.45;57.09
75497;BME280;64074;47.540;19.072;2023-07-29T07:38:07;100207.03;;;25.40;56.78
75497;BME280;64074;47.540;19.072;2023-07-29T07:41:15;100208.19;;;25.57;57.29
75497;BME280;64074;47.540;19.072;2023-07-29T07:44:18;100200.66;;;25.57;56.62
75497;BME280;64074;47.540;19.072;2023-07-29T07:47:23;100208.56;;;25.62;56.94
75497;BME280;64074;47.540;19.072;2023-07-29T07:50:29;100200.63;;;25.75;56.97
75497;BME280;64074;47.540;19.072;2023-07-29T07:53:33;100196.28;;;25.63;56.31
75497;BME280;64074;47.540;19.072;2023-07-29T07:56:35;100187.91;;;25.77;54.41
75497;BME280;64074;47.540;19.072;2023-07-29T07:59:39;100187.94;;;25.81;55.53
75497;BME280;64074;47.540;19.072;2023-07-29T08:02:43;100184.75;;;25.79;55.29
75497;BME280;64074;47.540;19.072;2023-07-29T08:05:47;100196.56;;;26.04;55.18
75497;BME280;64074;47.540;19.072;2023-07-29T08:08:51;100198.88;;;26.17;54.50
75497;BME280;64074;47.540;19.072;2023-07-29T08:11:54;100187.44;;;26.04;53.75
75497;BME280;64074;47.540;19.072;2023-07-29T08:14:57;100177.38;;;26.24;53.17
75497;BME280;64074;47.540;19.072;2023-07-29T08:18:00;100177.72;;;26.41;52.59
75497;BME280;64074;47.540;19.072;2023-07-29T08:21:04;100177.69;;;26.48;52.52
75497;BME280;64074;47.540;19.072;2023-07-29T08:24:07;100172.44;;;26.60;52.01
75497;BME280;64074;47.540;19.072;2023-07-29T08:27:10;100169.66;;;26.60;51.57
75497;BME280;64074;47.540;19.072;2023-07-29T08:30:13;100174.75;;;26.69;50.49
75497;BME280;64074;47.540;19.072;2023-07-29T08:33:17;100176.25;;;26.81;50.90
75497;BME280;64074;47.540;19.072;2023-07-29T08:36:20;100173.13;;;26.72;51.04
75497;BME280;64074;47.540;19.072;2023-07-29T08:39:23;100174.63;;;26.87;50.72
75497;BME280;64074;47.540;19.072;2023-07-29T08:42:29;100182.06;;;26.97;50.52
75497;BME280;64074;47.540;19.072;2023-07-29T08:45:35;100167.75;;;26.98;48.63
75497;BME280;64074;47.540;19.072;2023-07-29T08:48:42;100169.13;;;27.24;47.37
75497;BME280;64074;47.540;19.072;2023-07-29T08:51:46;100161.78;;;27.45;46.00
75497;BME280;64074;47.540;19.072;2023-07-29T08:54:51;100169.91;;;27.25;46.70
75497;BME280;64074;47.540;19.072;2023-07-29T08:57:55;100177.81;;;27.34;42.93
75497;BME280;64074;47.540;19.072;2023-07-29T09:00:59;100169.59;;;27.57;44.30
75497;BME280;64074;47.540;19.072;2023-07-29T09:04:02;100165.97;;;27.64;43.75
75497;BME280;64074;47.540;19.072;2023-07-29T09:07:07;100162.88;;;27.54;42.83
75497;BME280;64074;47.540;19.072;2023-07-29T09:10:13;100166.25;;;27.73;43.46
75497;BME280;64074;47.540;19.072;2023-07-29T09:13:16;100163.03;;;27.78;43.53
75497;BME280;64074;47.540;19.072;2023-07-29T09:16:20;100173.25;;;27.88;43.27
75497;BME280;64074;47.540;19.072;2023-07-29T09:19:26;100159.63;;;27.94;43.16
75497;BME280;64074;47.540;19.072;2023-07-29T09:22:30;100161.88;;;27.72;42.62
75497;BME280;64074;47.540;19.072;2023-07-29T09:25:33;100159.97;;;27.65;41.82
75497;BME280;64074;47.540;19.072;2023-07-29T09:28:37;100153.50;;;28.06;42.77
75497;BME280;64074;47.540;19.072;2023-07-29T09:31:41;100153.03;;;28.11;42.97
75497;BME280;64074;47.540;19.072;2023-07-29T09:34:45;100145.47;;;27.81;42.83
75497;BME280;64074;47.540;19.072;2023-07-29T09:37:47;100151.38;;;27.86;43.01
75497;BME280;64074;47.540;19.072;2023-07-29T09:40:54;100139.69;;;27.95;41.67
75497;BME280;64074;47.540;19.072;2023-07-29T09:44:04;100137.94;;;28.08;42.02
75497;BME280;64074;47.540;19.072;2023-07-29T09:47:07;100140.03;;;28.01;43.62
75497;BME280;64074;47.540;19.072;2023-07-29T09:50:10;100143.19;;;28.03;41.33
75497;BME280;64074;47.540;19.072;2023-07-29T09:53:15;100138.50;;;27.96;39.63
75497;BME280;64074;47.540;19.072;2023-07-29T09:56:18;100131.34;;;27.95;40.76
75497;BME280;64074;47.540;19.072;2023-07-29T09:59:27;100134.53;;;28.28;40.19
75497;BME280;64074;47.540;19.072;2023-07-29T10:02:31;100131.88;;;28.44;40.12
75497;BME280;64074;47.540;19.072;2023-07-29T10:05:37;100138.09;;;28.28;40.76
75497;BME280;64074;47.540;19.072;2023-07-29T10:08:42;100128.38;;;28.09;40.54
75497;BME280;64074;47.540;19.072;2023-07-29T10:11:46;100125.66;;;28.60;39.23
75497;BME280;64074;47.540;19.072;2023-07-29T10:14:50;100118.94;;;28.80;38.68
75497;BME280;64074;47.540;19.072;2023-07-29T10:17:56;100116.59;;;29.02;38.63
75497;BME280;64074;47.540;19.072;2023-07-29T10:21:01;100118.38;;;29.13;38.84
75497;BME280;64074;47.540;19.072;2023-07-29T10:24:06;100116.63;;;28.99;38.17
75497;BME280;64074;47.540;19.072;2023-07-29T10:27:14;100113.72;;;29.49;38.44
75497;BME280;64074;47.540;19.072;2023-07-29T10:30:21;100111.94;;;29.59;37.50
75497;BME280;64074;47.540;19.072;2023-07-29T10:33:25;100110.63;;;29.83;37.73
75497;BME280;64074;47.540;19.072;2023-07-29T10:36:29;100106.19;;;30.38;36.32
75497;BME280;64074;47.540;19.072;2023-07-29T10:39:39;100113.66;;;30.61;36.02
75497;BME280;64074;47.540;19.072;2023-07-29T10:43:09;100113.38;;;30.88;35.45
75497;BME280;64074;47.540;19.072;2023-07-29T10:46:20;100107.59;;;30.95;35.11
75497;BME280;64074;47.540;19.072;2023-07-29T10:49:24;100112.22;;;30.37;36.48
75497;BME280;64074;47.540;19.072;2023-07-29T10:52:39;100116.09;;;30.26;37.35
75497;BME280;64074;47.540;19.072;2023-07-29T10:55:43;100108.09;;;29.89;38.10
75497;BME280;64074;47.540;19.072;2023-07-29T10:58:47;100103.91;;;30.17;37.45
75497;BME280;64074;47.540;19.072;2023-07-29T11:01:56;100106.53;;;29.88;38.45
75497;BME280;64074;47.540;19.072;2023-07-29T11:05:05;100101.31;;;30.26;37.98
75497;BME280;64074;47.540;19.072;2023-07-29T11:11:23;100107.25;;;30.44;37.96
75497;BME280;64074;47.540;19.072;2023-07-29T11:14:26;100105.44;;;30.54;38.10
75497;BME280;64074;47.540;19.072;2023-07-29T11:17:32;100108.72;;;29.60;39.12
75497;BME280;64074;47.540;19.072;2023-07-29T11:20:36;100108.81;;;29.93;39.48
75497;BME280;64074;47.540;19.072;2023-07-29T11:23:40;100108.56;;;29.24;40.67
75497;BME280;64074;47.540;19.072;2023-07-29T11:26:46;100114.09;;;29.08;40.41
75497;BME280;64074;47.540;19.072;2023-07-29T11:29:49;100103.41;;;29.23;40.77
75497;BME280;64074;47.540;19.072;2023-07-29T11:32:53;100095.53;;;29.97;39.61
75497;BME280;64074;47.540;19.072;2023-07-29T11:35:56;100089.16;;;30.65;38.34
75497;BME280;64074;47.540;19.072;2023-07-29T11:39:00;100091.81;;;31.17;37.61
75497;BME280;64074;47.540;19.072;2023-07-29T11:42:03;100098.78;;;30.64;37.90
75497;BME280;64074;47.540;19.072;2023-07-29T11:45:07;100097.47;;;31.30;36.40
75497;BME280;64074;47.540;19.072;2023-07-29T11:48:12;100077.88;;;31.72;35.59
75497;BME280;64074;47.540;19.072;2023-07-29T11:51:16;100073.06;;;32.61;36.00
75497;BME280;64074;47.540;19.072;2023-07-29T11:54:20;100077.97;;;32.70;34.11
75497;BME280;64074;47.540;19.072;2023-07-29T11:57:24;100065.38;;;32.74;34.07
75497;BME280;64074;47.540;19.072;2023-07-29T12:00:27;100072.59;;;32.63;35.19
75497;BME280;64074;47.540;19.072;2023-07-29T12:03:30;100073.31;;;32.03;34.31
75497;BME280;64074;47.540;19.072;2023-07-29T12:06:33;100067.88;;;32.60;33.18
75497;BME280;64074;47.540;19.072;2023-07-29T12:09:37;100053.69;;;32.03;33.17
75497;BME280;64074;47.540;19.072;2023-07-29T12:12:48;100057.19;;;33.37;31.69
75497;BME280;64074;47.540;19.072;2023-07-29T12:15:53;100052.75;;;34.78;30.37
75497;BME280;64074;47.540;19.072;2023-07-29T12:19:04;100058.63;;;34.34;29.56
75497;BME280;64074;47.540;19.072;2023-07-29T12:22:08;100037.75;;;35.08;29.08
75497;BME280;64074;47.540;19.072;2023-07-29T12:25:11;100037.25;;;35.37;28.24
75497;BME280;64074;47.540;19.072;2023-07-29T12:28:14;100047.41;;;34.62;28.55
75497;BME280;64074;47.540;19.072;2023-07-29T12:31:18;100048.63;;;32.49;30.04
75497;BME280;64074;47.540;19.072;2023-07-29T12:34:21;100048.78;;;32.80;30.90
75497;BME280;64074;47.540;19.072;2023-07-29T12:37:32;100043.31;;;32.51;31.07
75497;BME280;64074;47.540;19.072;2023-07-29T12:40:38;100046.94;;;32.13;32.16
75497;BME280;64074;47.540;19.072;2023-07-29T12:43:42;100040.81;;;32.66;31.24
75497;BME280;64074;47.540;19.072;2023-07-29T12:46:45;100037.72;;;33.73;29.81
75497;BME280;64074;47.540;19.072;2023-07-29T12:49:48;100037.88;;;34.01;29.56
75497;BME280;64074;47.540;19.072;2023-07-29T12:52:51;100043.97;;;31.53;33.71
75497;BME280;64074;47.540;19.072;2023-07-29T12:55:53;100033.94;;;31.81;32.69
75497;BME280;64074;47.540;19.072;2023-07-29T12:58:58;100022.69;;;34.66;28.99
75497;BME280;64074;47.540;19.072;2023-07-29T13:02:01;100011.03;;;36.06;26.24
75497;BME280;64074;47.540;19.072;2023-07-29T13:05:11;100021.38;;;34.30;28.04
75497;BME280;64074;47.540;19.072;2023-07-29T13:08:14;100018.50;;;35.07;26.78
75497;BME280;64074;47.540;19.072;2023-07-29T13:11:17;100014.09;;;35.85;26.37
75497;BME280;64074;47.540;19.072;2023-07-29T13:14:20;100025.22;;;35.79;25.28
75497;BME280;64074;47.540;19.072;2023-07-29T13:17:24;100019.56;;;36.21;25.34
75497;BME280;64074;47.540;19.072;2023-07-29T13:20:27;100014.78;;;37.14;24.20
75497;BME280;64074;47.540;19.072;2023-07-29T13:23:30;100019.97;;;36.77;24.17
75497;BME280;64074;47.540;19.072;2023-07-29T13:26:34;100021.38;;;36.81;24.04
75497;BME280;64074;47.540;19.072;2023-07-29T13:29:39;100010.44;;;36.74;24.74
75497;BME280;64074;47.540;19.072;2023-07-29T13:32:42;99996.00;;;37.55;23.98
75497;BME280;64074;47.540;19.072;2023-07-29T13:35:46;99995.78;;;36.37;25.44
75497;BME280;64074;47.540;19.072;2023-07-29T13:38:49;99997.22;;;37.98;23.78
75497;BME280;64074;47.540;19.072;2023-07-29T13:41:52;100000.38;;;38.21;22.93
75497;BME280;64074;47.540;19.072;2023-07-29T13:44:54;99984.59;;;39.01;22.51
75497;BME280;64074;47.540;19.072;2023-07-29T13:47:58;99975.13;;;38.84;22.54
75497;BME280;64074;47.540;19.072;2023-07-29T13:51:02;99972.31;;;39.67;21.64
75497;BME280;64074;47.540;19.072;2023-07-29T13:54:04;99974.59;;;39.94;21.11
75497;BME280;64074;47.540;19.072;2023-07-29T13:57:07;99966.25;;;41.27;20.56
75497;BME280;64074;47.540;19.072;2023-07-29T14:00:14;99964.03;;;40.60;20.56
75497;BME280;64074;47.540;19.072;2023-07-29T14:03:17;99975.13;;;38.84;21.57
75497;BME280;64074;47.540;19.072;2023-07-29T14:06:20;99966.41;;;37.71;22.99
75497;BME280;64074;47.540;19.072;2023-07-29T14:09:43;99946.91;;;39.52;21.80
75497;BME280;64074;47.540;19.072;2023-07-29T14:12:46;99950.69;;;38.05;23.35
75497;BME280;64074;47.540;19.072;2023-07-29T14:15:49;99940.19;;;39.18;21.72
75497;BME280;64074;47.540;19.072;2023-07-29T14:18:52;99941.13;;;41.14;20.42
75497;BME280;64074;47.540;19.072;2023-07-29T14:21:54;99941.34;;;38.80;21.89
75497;BME280;64074;47.540;19.072;2023-07-29T14:24:57;99949.13;;;35.61;25.40
75497;BME280;64074;47.540;19.072;2023-07-29T14:28:02;99942.28;;;34.65;26.76
75497;BME280;64074;47.540;19.072;2023-07-29T14:31:05;99951.72;;;33.94;27.84
75497;BME280;64074;47.540;19.072;2023-07-29T14:34:09;99945.50;;;35.18;26.49
75497;BME280;64074;47.540;19.072;2023-07-29T14:37:12;99937.94;;;36.09;25.57
75497;BME280;64074;47.540;19.072;2023-07-29T14:40:15;99936.56;;;36.04;26.16
75497;BME280;64074;47.540;19.072;2023-07-29T14:43:17;99930.53;;;34.84;27.99
75497;BME280;64074;47.540;19.072;2023-07-29T14:46:20;99927.25;;;33.32;29.71
75497;BME280;64074;47.540;19.072;2023-07-29T14:49:24;99934.19;;;32.75;30.84
75497;BME280;64074;47.540;19.072;2023-07-29T14:52:27;99925.69;;;33.10;30.50
75497;BME280;64074;47.540;19.072;2023-07-29T14:55:29;99938.00;;;32.81;30.84
75497;BME280;64074;47.540;19.072;2023-07-29T14:58:33;99928.31;;;33.04;31.24
75497;BME280;64074;47.540;19.072;2023-07-29T15:01:36;99933.31;;;33.00;31.23
75497;BME280;64074;47.540;19.072;2023-07-29T15:04:39;99927.50;;;32.38;31.67
75497;BME280;64074;47.540;19.072;2023-07-29T15:07:42;99930.19;;;32.63;31.37
75497;BME280;64074;47.540;19.072;2023-07-29T15:10:49;99925.50;;;32.60;31.73
75497;BME280;64074;47.540;19.072;2023-07-29T15:13:51;99929.25;;;32.44;32.18
75497;BME280;64074;47.540;19.072;2023-07-29T15:16:54;99924.34;;;32.36;32.25
75497;BME280;64074;47.540;19.072;2023-07-29T15:19:57;99933.13;;;32.25;32.65
75497;BME280;64074;47.540;19.072;2023-07-29T15:23:00;99933.81;;;32.29;32.10
75497;BME280;64074;47.540;19.072;2023-07-29T15:26:03;99932.28;;;32.50;32.40
75497;BME280;64074;47.540;19.072;2023-07-29T15:29:06;99929.47;;;32.50;32.22
75497;BME280;64074;47.540;19.072;2023-07-29T15:32:10;99929.53;;;32.59;32.66
75497;BME280;64074;47.540;19.072;2023-07-29T15:35:13;99927.03;;;32.39;32.79
75497;BME280;64074;47.540;19.072;2023-07-29T15:38:17;99932.03;;;32.57;32.13
75497;BME280;64074;47.540;19.072;2023-07-29T15:41:20;99934.25;;;32.15;32.54
75497;BME280;64074;47.540;19.072;2023-07-29T15:44:23;99938.47;;;32.45;32.85
75497;BME280;64074;47.540;19.072;2023-07-29T15:47:27;99938.59;;;31.81;33.19
75497;BME280;64074;47.540;19.072;2023-07-29T15:50:30;99932.09;;;31.72;33.09
75497;BME280;64074;47.540;19.072;2023-07-29T15:53:33;99940.91;;;31.70;33.52